EW3326 Weather Reports


Display with metric or nautical units.
time (UTC)temp
F
wind
direction
speed
MPH
gust
MPH
rain 1hr
in
rain 24hr
in
rain mn
in
humidity
%
barometer
mb
20240417213037 57 175 3.0 9.0 0.00 0.00 0.00 47 1017.6
20240417211537 58 130 1.0 7.0 0.00 0.00 0.00 47 1017.5
20240417210053 59 167 2.0 4.0 0.00 0.00 0.00 47 1017.4
20240417204536 58 70 2.0 9.0 0.00 0.00 0.00 47 1017.3
20240417203036 58 49 2.0 6.0 0.00 0.00 0.00 47 1017.2
20240417201540 58 41 2.0 7.0 0.00 0.00 0.00 46 1017.4
20240417200053 59 108 2.0 6.0 0.00 0.00 0.00 46 1017.3
20240417194540 60 41 1.0 6.0 0.00 0.00 0.00 45 1017.3
20240417193034 61 317 3.0 9.0 0.00 0.00 0.00 41 1017.4
20240417191530 64 38 0.0 3.0 0.00 0.00 0.00 36 1017.6
20240417190029 63 225 0.0 5.0 0.00 0.00 0.00 38 1018.0
20240417184524 63 245 0.0 4.0 0.00 0.00 0.00 39 1018.3
20240417183023 61 251 1.0 5.0 0.00 0.00 0.00 38 1018.6
20240417181521 62 39 2.0 5.0 0.00 0.00 0.00 41 1018.7
20240417180019 61 31 0.0 5.0 0.00 0.00 0.00 41 1018.9
20240417174515 62 13 1.0 3.0 0.00 0.00 0.00 42 1019.1
20240417173011 61 54 3.0 5.0 0.00 0.00 0.00 39 1019.3
20240417171510 61 219 1.0 4.0 0.00 0.00 0.00 40 1019.4
20240417170005 60 158 0.0 4.0 0.00 0.00 0.00 40 1019.5
20240417164501 59 222 0.0 4.0 0.00 0.00 0.00 41 1019.8
20240417161555 57 191 0.0 4.0 0.00 0.00 0.00 43 1020.4
20240417160054 57 111 1.0 4.0 0.00 0.00 0.00 43 1020.6
20240417154613 57 195 1.0 4.0 0.00 0.00 0.00 44 1020.8
20240417153052 57 267 0.0 3.0 0.00 0.00 0.00 46 1020.9
20240417151551 56 150 0.0 4.0 0.00 0.00 0.00 46 1021.0
20240417150049 56 222 1.0 5.0 0.00 0.00 0.00 47 1021.1
20240417143055 53 282 0.0 4.0 0.00 0.00 0.00 49 1021.4
20240417141544 53 334 0.0 4.0 0.00 0.00 0.00 49 1021.7
20240417140046 51 106 0.0 3.0 0.00 0.00 0.00 53 1021.9
20240417134541 52 236 1.0 3.0 0.00 0.00 0.00 53 1022.0
20240417133040 50 233 0.0 4.0 0.00 0.00 0.00 56 1022.1
20240417131539 50 46 0.0 4.0 0.00 0.00 0.00 58 1022.2
20240417130039 49 38 0.0 4.0 0.00 0.00 0.00 57 1022.4
20240417124539 49 105 0.0 3.0 0.00 0.00 0.00 57 1022.5
20240417123053 49 268 0.0 0.0 0.00 0.00 0.00 58 1022.7
20240417121536 47 264 0.0 2.0 0.00 0.00 0.00 63 1022.7
20240417120038 46 139 0.0 2.0 0.00 0.00 0.00 64 1022.6
20240417114531 44 174 0.0 3.0 0.00 0.00 0.00 68 1022.5
20240417113030 43 209 0.0 4.0 0.00 0.00 0.00 70 1022.6
20240417111540 42 42 0.0 4.0 0.00 0.00 0.00 72 1022.5
20240417110040 41 351 0.0 1.0 0.00 0.00 0.00 76 1022.5
20240417104533 40 347 0.0 0.0 0.00 0.00 0.00 79 1022.6
20240417103028 40 347 0.0 1.0 0.00 0.00 0.00 80 1022.4
20240417101534 40 347 0.0 0.0 0.00 0.00 0.00 80 1022.4
20240417100024 40 347 0.0 1.0 0.00 0.00 0.00 79 1022.3
20240417094521 40 347 0.0 0.0 0.00 0.00 0.00 79 1022.0
20240417093020 40 347 0.0 0.0 0.00 0.00 0.00 78 1022.0
20240417091517 41 347 0.0 0.0 0.00 0.00 0.00 76 1021.7
20240417090024 42 347 0.0 0.0 0.00 0.00 0.00 73 1021.4
20240417084509 43 347 0.0 3.0 0.00 0.00 0.00 71 1021.3
20240417083007 44 21 0.0 3.0 0.00 0.00 0.00 70 1021.1
20240417081506 44 16 0.0 3.0 0.00 0.00 0.00 69 1021.0
20240417080004 44 39 0.0 2.0 0.00 0.00 0.00 70 1020.9
20240417074502 44 72 0.0 1.0 0.00 0.00 0.00 69 1020.7
20240417073100 44 23 0.0 0.0 0.00 0.00 0.00 66 1020.6
20240417071610 45 23 0.0 1.0 0.00 0.00 0.00 63 1020.5
20240417070118 46 34 0.0 0.0 0.00 0.00 0.00 59 1020.5
20240417064557 47 19 0.0 2.0 0.00 0.00 0.00 57 1020.4
20240417063051 47 50 0.0 2.0 0.00 0.00 0.00 56 1020.5
20240417061600 48 49 0.0 3.0 0.00 0.00 0.00 54 1020.6
20240417060044 49 41 0.0 4.0 0.00 0.00 0.00 54 1020.6
20240417054546 49 53 0.0 5.0 0.00 0.00 0.00 54 1020.8
20240417053044 49 18 1.0 6.0 0.00 0.00 0.00 54 1020.8
20240417051540 49 358 0.0 1.0 0.00 0.00 0.00 55 1020.8
20240417050041 49 359 0.0 1.0 0.00 0.00 0.00 54 1020.7
20240417044539 49 1 0.0 1.0 0.00 0.00 0.00 53 1020.6
20240417043039 50 24 0.0 2.0 0.00 0.00 0.00 53 1020.7
20240417041533 51 37 0.0 2.0 0.00 0.00 0.00 50 1020.6
20240417040033 51 27 0.0 2.0 0.00 0.00 0.00 49 1020.4
20240417034528 52 14 0.0 1.0 0.00 0.00 0.00 48 1020.2
20240417033026 53 39 0.0 5.0 0.00 0.00 0.00 46 1019.8
20240417031534 53 1 1.0 6.0 0.00 0.00 0.00 46 1019.4
20240417030021 52 36 0.0 1.0 0.00 0.00 0.00 48 1019.0
20240417024521 51 31 0.0 0.0 0.00 0.00 0.00 50 1018.6
20240417023016 52 16 0.0 0.0 0.00 0.00 0.00 49 1018.5
20240417021517 52 358 0.0 0.0 0.00 0.00 0.00 47 1018.3
20240417020016 53 358 0.0 0.0 0.00 0.00 0.00 48 1018.3
20240417014512 54 358 0.0 0.0 0.00 0.00 0.00 45 1018.1
20240417013016 54 358 0.0 0.0 0.00 0.00 0.00 45 1018.0
20240417011511 55 358 0.0 0.0 0.00 0.00 0.00 43 1018.0
20240417010010 56 323 0.0 0.0 0.00 0.00 0.00 43 1017.8
20240417004507 57 323 0.0 0.0 0.00 0.00 0.00 42 1017.6
20240417003006 57 314 0.0 0.0 0.00 0.00 0.00 40 1017.5
20240417001508 57 28 0.0 0.0 0.00 0.00 0.00 40 1017.2
20240417000005 59 28 0.0 1.0 0.00 0.00 0.00 40 1017.1
20240416234503 60 306 0.0 0.0 0.00 0.00 0.00 35 1016.9
20240416233002 61 306 0.0 3.0 0.00 0.00 0.00 33 1016.8
20240416231503 61 236 0.0 2.0 0.00 0.00 0.00 34 1016.6
20240416230002 62 43 0.0 3.0 0.00 0.00 0.00 34 1016.5
20240416224501 63 337 1.0 4.0 0.00 0.00 0.00 32 1016.4
20240416223100 63 259 0.0 4.0 0.00 0.00 0.00 31 1016.3
20240416221600 64 338 2.0 8.0 0.00 0.00 0.00 30 1016.1
20240416220200 64 226 0.0 8.0 0.00 0.00 0.00 31 1016.1
20240416214601 65 15 2.0 7.0 0.00 0.00 0.00 29 1016.1